TimeEDT,TemperatureF,Dew PointF,Humidity,Sea Level PressureIn,VisibilityMPH,Wind Direction,Wind SpeedMPH,Gust SpeedMPH,PrecipitationIn,Events,Conditions,WindDirDegrees,DateUTC
12:53 AM,46.9,43.0,86,30.10,10.0,NNW,3.5,-,N/A,,Clear,330,2013-09-09 04:53:00
1:53 AM,46.0,43.0,89,30.10,10.0,SSW,4.6,-,N/A,,Clear,210,2013-09-09 05:53:00
2:53 AM,43.0,41.0,93,30.11,10.0,Calm,Calm,-,N/A,,Clear,0,2013-09-09 06:53:00
3:53 AM,46.9,42.1,83,30.13,10.0,Calm,Calm,-,N/A,,Clear,0,2013-09-09 07:53:00
4:53 AM,45.0,41.0,86,30.15,10.0,Calm,Calm,-,N/A,,Clear,0,2013-09-09 08:53:00
5:53 AM,44.1,41.0,89,30.18,10.0,Calm,Calm,-,N/A,,Clear,0,2013-09-09 09:53:00
6:53 AM,45.0,41.0,86,30.20,10.0,Calm,Calm,-,N/A,,Clear,0,2013-09-09 10:53:00
7:53 AM,53.1,45.0,74,30.22,10.0,Calm,Calm,-,N/A,,Clear,0,2013-09-09 11:53:00
8:53 AM,57.9,45.0,62,30.23,10.0,Calm,Calm,-,N/A,,Clear,0,2013-09-09 12:53:00
9:53 AM,63.0,44.1,50,30.24,10.0,Calm,Calm,-,N/A,,Clear,0,2013-09-09 13:53:00
10:53 AM,64.9,43.0,45,30.23,10.0,Calm,Calm,-,N/A,,Clear,0,2013-09-09 14:53:00
11:53 AM,66.0,45.0,47,30.22,10.0,SE,3.5,-,N/A,,Clear,140,2013-09-09 15:53:00
12:53 PM,66.9,46.9,49,30.21,10.0,SSE,5.8,-,N/A,,Clear,150,2013-09-09 16:53:00
1:53 PM,66.0,48.0,52,30.20,10.0,SSW,11.5,20.7,N/A,,Clear,200,2013-09-09 17:53:00
2:53 PM,66.0,48.0,52,30.20,10.0,SW,12.7,-,N/A,,Clear,220,2013-09-09 18:53:00
3:53 PM,64.0,48.0,56,30.20,10.0,SW,12.7,-,N/A,,Clear,220,2013-09-09 19:53:00
4:53 PM,64.9,51.1,61,30.20,10.0,SSW,10.4,-,N/A,,Clear,200,2013-09-09 20:53:00
5:53 PM,63.0,51.1,65,30.19,10.0,SSW,8.1,-,N/A,,Clear,210,2013-09-09 21:53:00
6:53 PM,59.0,51.1,75,30.19,10.0,SW,4.6,-,N/A,,Clear,230,2013-09-09 22:53:00
7:53 PM,57.0,51.1,81,30.19,10.0,Calm,Calm,-,N/A,,Clear,0,2013-09-09 23:53:00
8:53 PM,54.0,51.1,90,30.18,10.0,SW,3.5,-,N/A,,Clear,220,2013-09-10 00:53:00
9:53 PM,53.1,50.0,89,30.19,10.0,Calm,Calm,-,N/A,,Clear,0,2013-09-10 01:53:00
10:53 PM,53.1,51.1,93,30.19,10.0,Calm,Calm,-,N/A,,Clear,0,2013-09-10 02:53:00
11:53 PM,53.1,50.0,89,30.17,10.0,Calm,Calm,-,N/A,,Clear,0,2013-09-10 03:53:00